Time;durP1;ratioP1;P1;durP2;ratioP2;P2;SDS_P1;SDS_P2;PMS_P1;PMS_P2;Temp;Humidity;BMP_temperature;BMP_pressure;BME280_temperature;BME280_humidity;BME280_pressure;Samples;Min_cycle;Max_cycle;Signal;HPM_P1;HPM_P2
2021/10/22 00:01:46;;;;;;;;;10.33;6.00;;;;;;;;5000995;28;47063;-96
2021/10/22 00:04:11;;;;;;;;;9.00;7.00;;;;;;;;4997175;28;45913;-96
2021/10/22 00:06:36;;;;;;;;;7.00;6.67;;;;;;;;4994488;28;45539;-95
2021/10/22 00:09:02;;;;;;;;;9.00;8.00;;;;;;;;4993701;28;45576;-96
2021/10/22 00:11:27;;;;;;;;;6.25;6.25;;;;;;;;4998628;28;47453;-96
2021/10/22 00:13:52;;;;;;;;;11.67;8.67;;;;;;;;4994262;28;45595;-96
2021/10/22 00:16:18;;;;;;;;;7.00;7.00;;;;;;;;4998665;28;45582;-95
2021/10/22 00:18:43;;;;;;;;;11.00;6.25;;;;;;;;4996317;28;45254;-95
2021/10/22 00:21:08;;;;;;;;;7.00;6.00;;;;;;;;4992550;28;46945;-93
2021/10/22 00:28:36;;;;;;;;;11.75;8.25;;;;;;;;5023375;28;45743;-90
2021/10/22 00:31:02;;;;;;;;;8.00;6.50;;;;;;;;5038731;28;47527;-91
2021/10/22 00:36:37;;;;;;;;;6.50;5.00;;;;;;;;5929046;22;46328;-93
2021/10/22 00:39:25;;;;;;;;;6.33;6.33;;;;;;;;5070436;22;45583;-94
2021/10/22 00:41:52;;;;;;;;;11.00;7.00;;;;;;;;5047265;22;46330;-80
2021/10/22 00:44:17;;;;;;;;;6.25;5.75;;;;;;;;5001615;28;45457;-80
2021/10/22 00:55:23;;;;;;;;;9.75;8.75;;;;;;;;4981224;28;46177;-80
2021/10/22 00:57:48;;;;;;;;;6.75;6.75;;;;;;;;5005449;28;45892;-80
2021/10/22 01:00:24;;;;;;;;;9.75;8.00;;;;;;;;5005428;28;45882;-80
2021/10/22 01:02:58;;;;;;;;;7.50;6.50;;;;;;;;5004484;28;45620;-80
2021/10/22 01:08:43;;;;;;;;;8.75;6.50;;;;;;;;5009237;28;45559;-80
2021/10/22 01:11:39;;;;;;;;;10.50;9.00;;;;;;;;5009788;28;45596;-80
2021/10/22 01:14:20;;;;;;;;;12.50;9.50;;;;;;;;5009743;28;45648;-80
2021/10/22 01:17:13;;;;;;;;;9.50;9.25;;;;;;;;5014842;28;45677;-81
2021/10/22 01:20:09;;;;;;;;;9.50;9.50;;;;;;;;4995465;28;45681;-80
2021/10/22 01:26:20;;;;;;;;;11.75;10.00;;;;;;;;5001494;28;46275;-80
2021/10/22 01:28:59;;;;;;;;;11.25;9.25;;;;;;;;5002644;28;47026;-80
2021/10/22 01:31:30;;;;;;;;;11.00;10.00;;;;;;;;5004166;28;45547;-81
2021/10/22 01:34:14;;;;;;;;;10.25;9.25;;;;;;;;5002576;28;45580;-80
2021/10/22 01:51:51;;;;;;;;;13.75;13.25;;;;;;;;4930050;28;45733;-80
2021/10/22 01:54:17;;;;;;;;;14.75;11.50;;;;;;;;4938692;28;45912;-80
2021/10/22 02:02:56;;;;;;;;;21.25;15.00;;;;;;;;4933185;28;45652;-80
2021/10/22 02:08:46;;;;;;;;;15.00;11.00;;;;;;;;4919740;28;45648;-80
2021/10/22 02:11:30;;;;;;;;;;;;;;;;;;;;;
2021/10/22 02:25:54;;;;;;;;;16.75;14.75;;;;;;;;4925004;28;45568;-80
2021/10/22 02:28:31;;;;;;;;;14.00;10.67;;;;;;;;4931820;28;45567;-80
2021/10/22 02:40:04;;;;;;;;;13.50;13.00;;;;;;;;4939447;28;45554;-80
2021/10/22 02:42:34;;;;;;;;;17.75;16.00;;;;;;;;4949936;28;45551;-80
2021/10/22 02:44:59;;;;;;;;;15.00;14.00;;;;;;;;4940741;28;47176;-81
2021/10/22 02:47:27;;;;;;;;;20.00;18.25;;;;;;;;4946117;28;45415;-80
2021/10/22 02:49:52;;;;;;;;;18.25;16.25;;;;;;;;4944482;28;45514;-80
2021/10/22 02:52:39;;;;;;;;;11.25;11.25;;;;;;;;4939408;28;49085;-80
2021/10/22 02:55:05;;;;;;;;;12.50;12.25;;;;;;;;4986732;28;46240;-80
2021/10/22 02:57:30;;;;;;;;;13.75;12.75;;;;;;;;4999247;28;45573;-79
2021/10/22 02:59:56;;;;;;;;;15.00;11.00;;;;;;;;4995920;28;49585;-79
2021/10/22 03:02:21;;;;;;;;;11.67;10.67;;;;;;;;4996942;28;45213;-79
2021/10/22 03:04:56;;;;;;;;;14.00;11.25;;;;;;;;4998655;28;45390;-79
2021/10/22 03:07:27;;;;;;;;;23.75;15.75;;;;;;;;4996255;28;45654;-79
2021/10/22 03:10:06;;;;;;;;;13.00;13.00;;;;;;;;5004691;28;45560;-79
2021/10/22 03:18:59;;;;;;;;;13.00;10.00;;;;;;;;5000400;28;45308;-79
2021/10/22 03:21:24;;;;;;;;;13.25;13.25;;;;;;;;5000237;28;45942;-79
2021/10/22 03:23:54;;;;;;;;;15.00;12.33;;;;;;;;4996549;28;45599;-79
2021/10/22 03:26:25;;;;;;;;;12.25;10.75;;;;;;;;4995819;28;45736;-79
2021/10/22 03:29:19;;;;;;;;;10.75;10.75;;;;;;;;5002580;28;45655;-80
2021/10/22 03:40:57;;;;;;;;;15.75;13.75;;;;;;;;4994129;28;45734;-79
2021/10/22 03:43:33;;;;;;;;;18.50;13.00;;;;;;;;4994202;28;45584;-79
2021/10/22 03:46:26;;;;;;;;;12.75;10.50;;;;;;;;4994191;28;45662;-79
2021/10/22 03:49:29;;;;;;;;;;;;;;;;;;;;;
2021/10/22 03:52:23;;;;;;;;;14.75;13.50;;;;;;;;4994565;28;74277;-79
2021/10/22 04:32:08;;;;;;;;;19.25;13.00;;;;;;;;4922285;28;45668;-78
2021/10/22 04:40:57;;;;;;;;;15.25;9.50;;;;;;;;4920335;28;45611;-79
2021/10/22 04:43:44;;;;;;;;;;;;;;;;;;;;;
2021/10/22 04:58:39;;;;;;;;;16.75;10.50;;;;;;;;4896849;28;46636;-79
2021/10/22 05:04:37;;;;;;;;;12.75;12.75;;;;;;;;4893647;28;45884;-79
2021/10/22 05:07:01;;;;;;;;;16.25;14.50;;;;;;;;4898160;28;45616;-80
2021/10/22 05:09:39;;;;;;;;;18.75;12.00;;;;;;;;5001699;28;49039;-81
2021/10/22 05:12:07;;;;;;;;;13.50;13.00;;;;;;;;4989394;28;46898;-80
2021/10/22 05:17:33;;;;;;;;;12.00;12.00;;;;;;;;5047452;28;45556;-94
2021/10/22 05:19:58;;;;;;;;;13.00;11.50;;;;;;;;5057523;28;45418;-92
2021/10/22 05:22:23;;;;;;;;;15.00;10.33;;;;;;;;5039364;28;48302;-92
2021/10/22 05:24:49;;;;;;;;;10.00;10.00;;;;;;;;5042446;28;46029;-93
2021/10/22 05:27:14;;;;;;;;;10.33;10.33;;;;;;;;5043554;28;45357;-94
2021/10/22 05:29:39;;;;;;;;;15.00;13.00;;;;;;;;5037723;28;45473;-93
2021/10/22 05:32:05;;;;;;;;;13.75;11.00;;;;;;;;5056625;28;46344;-93
2021/10/22 05:34:30;;;;;;;;;15.25;11.00;;;;;;;;5057533;28;45528;-93
2021/10/22 05:36:55;;;;;;;;;11.00;10.00;;;;;;;;5037808;28;44765;-94
2021/10/22 05:39:21;;;;;;;;;14.67;12.33;;;;;;;;5044037;28;45466;-94
2021/10/22 05:41:47;;;;;;;;;17.50;11.50;;;;;;;;5058018;28;47332;-94
2021/10/22 05:44:13;;;;;;;;;15.00;11.00;;;;;;;;5059950;28;45621;-95
2021/10/22 05:46:39;;;;;;;;;15.25;13.75;;;;;;;;5057445;28;45503;-94
2021/10/22 05:49:04;;;;;;;;;18.00;16.25;;;;;;;;5042874;28;45367;-93
2021/10/22 05:51:30;;;;;;;;;14.00;13.00;;;;;;;;5043409;28;47998;-93
2021/10/22 05:53:56;;;;;;;;;16.25;12.50;;;;;;;;5042282;28;45557;-94
2021/10/22 05:56:21;;;;;;;;;15.75;13.50;;;;;;;;5054586;28;44890;-92
2021/10/22 05:58:47;;;;;;;;;16.00;13.25;;;;;;;;5040887;28;45524;-92
2021/10/22 06:01:13;;;;;;;;;13.75;13.00;;;;;;;;5049712;28;47463;-94
2021/10/22 06:08:51;;;;;;;;;14.25;12.75;;;;;;;;5007716;26;50859;-78
2021/10/22 06:11:19;;;;;;;;;15.25;13.00;;;;;;;;5038747;28;45785;-79
2021/10/22 06:16:19;;;;;;;;;16.25;16.00;;;;;;;;5145287;22;45553;-80
2021/10/22 06:18:48;;;;;;;;;17.50;13.50;;;;;;;;5003291;28;50868;-79
2021/10/22 06:21:23;;;;;;;;;17.00;14.50;;;;;;;;5010800;28;45959;-80
2021/10/22 06:23:54;;;;;;;;;20.00;17.25;;;;;;;;4997480;28;46843;-80
2021/10/22 06:26:20;;;;;;;;;13.25;13.00;;;;;;;;5024343;28;45519;-81
2021/10/22 06:28:48;;;;;;;;;17.00;14.25;;;;;;;;5013635;28;45422;-80
2021/10/22 06:31:14;;;;;;;;;19.25;16.50;;;;;;;;5007100;28;46582;-80
2021/10/22 06:33:45;;;;;;;;;19.00;11.50;;;;;;;;5010266;28;45561;-80
2021/10/22 06:36:37;;;;;;;;;31.00;27.50;;;;;;;;5012776;28;47249;-80
2021/10/22 06:39:18;;;;;;;;;26.25;25.25;;;;;;;;4954620;28;46234;-80
2021/10/22 06:41:50;;;;;;;;;29.00;22.50;;;;;;;;4939326;28;46656;-81
2021/10/22 06:44:31;;;;;;;;;29.50;26.25;;;;;;;;4938016;28;48417;-79
2021/10/22 06:49:44;;;;;;;;;20.50;19.50;;;;;;;;4907318;28;45469;-80
2021/10/22 06:52:09;;;;;;;;;27.50;19.25;;;;;;;;4904765;28;47684;-79
2021/10/22 06:54:37;;;;;;;;;19.33;19.33;;;;;;;;4906491;28;45619;-80
2021/10/22 06:57:11;;;;;;;;;17.50;17.25;;;;;;;;4904035;28;45762;-79
2021/10/22 06:59:36;;;;;;;;;18.25;17.25;;;;;;;;4888401;28;45374;-79
2021/10/22 07:02:19;;;;;;;;;21.67;17.67;;;;;;;;4908047;28;45943;-80
2021/10/22 07:04:49;;;;;;;;;21.25;17.75;;;;;;;;4903260;28;45744;-79
2021/10/22 07:07:15;;;;;;;;;17.25;17.00;;;;;;;;4898840;28;45588;-80
2021/10/22 07:09:41;;;;;;;;;19.00;17.75;;;;;;;;4897043;28;47778;-81
2021/10/22 07:15:15;;;;;;;;;24.25;20.25;;;;;;;;4909653;28;45564;-80
2021/10/22 07:17:40;;;;;;;;;30.00;23.00;;;;;;;;4929655;28;51032;-80
2021/10/22 07:20:06;;;;;;;;;22.75;18.75;;;;;;;;4924732;28;45453;-80
2021/10/22 07:22:33;;;;;;;;;28.00;21.75;;;;;;;;4929404;28;46395;-80
2021/10/22 07:24:58;;;;;;;;;19.25;19.25;;;;;;;;4933371;28;45017;-81
2021/10/22 07:27:23;;;;;;;;;26.00;19.00;;;;;;;;4952578;28;54815;-80
2021/10/22 07:29:49;;;;;;;;;27.25;21.75;;;;;;;;4988018;22;45604;-93
2021/10/22 07:32:14;;;;;;;;;27.50;19.50;;;;;;;;5032142;28;45409;-94
2021/10/22 07:34:40;;;;;;;;;25.50;21.75;;;;;;;;5008163;28;45514;-91
2021/10/22 07:37:05;;;;;;;;;19.25;17.25;;;;;;;;5023869;28;45452;-93
2021/10/22 07:41:58;;;;;;;;;18.00;16.00;;;;;;;;5056992;28;46556;-93
2021/10/22 07:44:23;;;;;;;;;19.00;18.00;;;;;;;;5040192;28;45507;-94
2021/10/22 07:46:49;;;;;;;;;18.50;18.25;;;;;;;;5066086;27;45706;-93
2021/10/22 07:49:14;;;;;;;;;22.00;19.75;;;;;;;;5047777;28;45340;-93
2021/10/22 07:51:41;;;;;;;;;23.00;18.00;;;;;;;;5068882;22;47328;-81
2021/10/22 07:54:14;;;;;;;;;18.00;15.25;;;;;;;;5061576;27;49678;-81
2021/10/22 07:56:44;;;;;;;;;27.00;17.75;;;;;;;;5073001;27;45717;-81
2021/10/22 07:59:13;;;;;;;;;20.50;16.75;;;;;;;;5115074;22;45591;-95
2021/10/22 08:01:39;;;;;;;;;22.00;19.50;;;;;;;;5040976;28;46932;-96
2021/10/22 08:04:04;;;;;;;;;23.50;19.25;;;;;;;;5065540;28;45394;-95
2021/10/22 08:07:05;;;;;;;;;19.50;15.75;;;;;;;;5045519;28;45533;-96
2021/10/22 08:09:31;;;;;;;;;21.75;16.00;;;;;;;;4940579;28;45527;-95
2021/10/22 08:11:56;;;;;;;;;19.50;15.00;;;;;;;;4960786;28;47885;-95
2021/10/22 08:14:21;;;;;;;;;14.25;12.75;;;;;;;;4957674;28;45978;-92
2021/10/22 08:16:47;;;;;;;;;20.00;16.00;;;;;;;;4957947;28;45582;-95
2021/10/22 08:19:12;;;;;;;;;19.75;15.00;;;;;;;;4960755;28;45287;-93
2021/10/22 08:22:25;;;;;;;;;17.50;14.00;;;;;;;;5022121;22;45573;-82
2021/10/22 08:25:00;;;;;;;;;19.00;15.00;;;;;;;;5012363;28;45494;-81
2021/10/22 08:27:27;;;;;;;;;13.25;13.25;;;;;;;;5018087;28;45503;-79
2021/10/22 08:29:52;;;;;;;;;16.50;12.25;;;;;;;;5015854;28;46069;-80
2021/10/22 08:32:18;;;;;;;;;15.75;15.00;;;;;;;;4998425;28;46192;-80
2021/10/22 08:34:43;;;;;;;;;14.00;11.75;;;;;;;;5013911;28;45701;-79
2021/10/22 08:37:08;;;;;;;;;12.00;11.00;;;;;;;;5004989;28;45490;-78
2021/10/22 08:39:33;;;;;;;;;17.50;12.50;;;;;;;;5016350;28;45792;-79
2021/10/22 08:41:59;;;;;;;;;15.00;11.75;;;;;;;;5013804;28;46140;-79
2021/10/22 08:46:54;;;;;;;;;11.00;8.50;;;;;;;;5055520;27;45637;-78
2021/10/22 08:49:20;;;;;;;;;15.00;11.00;;;;;;;;5054927;27;45603;-77
2021/10/22 08:57:28;;;;;;;;;16.00;11.50;;;;;;;;5997815;22;45774;-96
2021/10/22 09:00:15;;;;;;;;;10.75;10.50;;;;;;;;5063186;22;45534;-77
2021/10/22 09:02:41;;;;;;;;;15.75;11.25;;;;;;;;5032609;28;45739;-78
2021/10/22 09:05:10;;;;;;;;;14.75;11.00;;;;;;;;5032545;28;45493;-77
2021/10/22 09:07:39;;;;;;;;;12.00;12.00;;;;;;;;5029809;28;45107;-77
2021/10/22 09:10:05;;;;;;;;;18.00;10.00;;;;;;;;5031243;28;45516;-77
2021/10/22 09:12:41;;;;;;;;;10.00;8.00;;;;;;;;5040744;28;46552;-78
2021/10/22 09:15:08;;;;;;;;;7.75;5.25;;;;;;;;5029918;28;52070;-77
2021/10/22 09:17:34;;;;;;;;;6.00;5.00;;;;;;;;5026937;28;45599;-77
2021/10/22 09:19:59;;;;;;;;;6.50;3.00;;;;;;;;5030062;28;46091;-77
2021/10/22 09:22:28;;;;;;;;;2.00;2.00;;;;;;;;5024589;28;45587;-77
2021/10/22 09:25:02;;;;;;;;;5.25;3.00;;;;;;;;5015482;28;46008;-77
2021/10/22 09:27:38;;;;;;;;;2.00;2.00;;;;;;;;5025563;28;47367;-78
2021/10/22 09:30:05;;;;;;;;;3.00;2.00;;;;;;;;5029975;28;47232;-77
2021/10/22 09:32:32;;;;;;;;;9.75;4.25;;;;;;;;5030449;28;46541;-77
2021/10/22 09:34:58;;;;;;;;;3.50;2.50;;;;;;;;5022591;28;47826;-78
2021/10/22 09:37:25;;;;;;;;;5.25;4.50;;;;;;;;5007685;28;45549;-78
2021/10/22 09:40:13;;;;;;;;;3.50;2.00;;;;;;;;5981166;22;47622;-96
2021/10/22 09:43:10;;;;;;;;;3.25;3.25;;;;;;;;5114019;22;47541;-96
2021/10/22 09:45:47;;;;;;;;;5.00;3.00;;;;;;;;5730559;22;46001;-77
2021/10/22 09:48:23;;;;;;;;;6.00;4.75;;;;;;;;4965507;28;45821;-77
2021/10/22 09:50:48;;;;;;;;;7.00;5.25;;;;;;;;4964755;28;46350;-79
2021/10/22 09:53:45;;;;;;;;;7.00;5.00;;;;;;;;4954637;28;48498;-77
2021/10/22 09:56:09;;;;;;;;;6.00;5.50;;;;;;;;4962791;28;45686;-80
2021/10/22 09:58:35;;;;;;;;;6.25;5.00;;;;;;;;4964795;28;45644;-79
2021/10/22 10:01:10;;;;;;;;;4.00;4.00;;;;;;;;4969657;28;47016;-79
2021/10/22 10:03:39;;;;;;;;;3.25;2.00;;;;;;;;4967915;28;47246;-79
2021/10/22 10:06:07;;;;;;;;;2.00;2.00;;;;;;;;4969111;28;45872;-77
2021/10/22 10:08:44;;;;;;;;;3.25;3.00;;;;;;;;4961646;28;45719;-80
2021/10/22 10:11:10;;;;;;;;;4.25;2.75;;;;;;;;4966379;28;45982;-81
2021/10/22 10:13:35;;;;;;;;;5.00;3.00;;;;;;;;4949635;28;46140;-79
2021/10/22 10:16:07;;;;;;;;;3.75;3.00;;;;;;;;4965313;28;45833;-82
2021/10/22 10:18:58;;;;;;;;;6.75;4.00;;;;;;;;4969117;28;47402;-78
2021/10/22 10:21:27;;;;;;;;;6.50;3.00;;;;;;;;4964441;28;45695;-81
2021/10/22 10:24:24;;;;;;;;;4.75;1.75;;;;;;;;4962228;28;45529;-78
2021/10/22 10:27:18;;;;;;;;;2.00;2.00;;;;;;;;4951518;28;45769;-79
2021/10/22 10:30:08;;;;;;;;;2.00;2.00;;;;;;;;4944427;28;49576;-78
2021/10/22 10:32:39;;;;;;;;;3.25;3.00;;;;;;;;4963948;28;45842;-80
2021/10/22 10:35:26;;;;;;;;;2.50;2.50;;;;;;;;4972597;28;45712;-78
2021/10/22 10:37:57;;;;;;;;;2.00;1.50;;;;;;;;4969841;28;45544;-78
2021/10/22 10:40:24;;;;;;;;;1.00;1.00;;;;;;;;4954545;28;46014;-78
2021/10/22 10:42:56;;;;;;;;;4.00;1.50;;;;;;;;4972640;28;46250;-81
2021/10/22 10:45:21;;;;;;;;;5.25;3.00;;;;;;;;4968875;28;45583;-79
2021/10/22 10:47:55;;;;;;;;;3.00;3.00;;;;;;;;4968181;28;45708;-78
2021/10/22 10:50:22;;;;;;;;;4.00;3.00;;;;;;;;4949674;28;45499;-79
2021/10/22 10:52:48;;;;;;;;;3.50;3.50;;;;;;;;4960344;28;45599;-81
2021/10/22 10:55:31;;;;;;;;;5.00;5.00;;;;;;;;4969431;28;50171;-79
2021/10/22 10:58:09;;;;;;;;;3.25;3.25;;;;;;;;4968272;28;49253;-79
2021/10/22 11:00:53;;;;;;;;;4.00;4.00;;;;;;;;4978757;28;45565;-79
2021/10/22 11:03:23;;;;;;;;;3.00;2.00;;;;;;;;4972839;28;45663;-79
2021/10/22 11:05:52;;;;;;;;;4.00;3.00;;;;;;;;4969405;28;48734;-79
2021/10/22 11:08:20;;;;;;;;;5.25;3.00;;;;;;;;4973378;28;45499;-79
2021/10/22 11:11:11;;;;;;;;;3.00;2.25;;;;;;;;4968307;28;46142;-79
2021/10/22 11:13:42;;;;;;;;;4.75;3.25;;;;;;;;4968773;28;45525;-79
2021/10/22 11:20:03;;;;;;;;;2.75;2.00;;;;;;;;4912884;28;45573;-78
2021/10/22 11:26:08;;;;;;;;;;;;;;;;;;;;;
2021/10/22 11:32:20;;;;;;;;;;;;;;;;;;;;;
2021/10/22 11:41:15;;;;;;;;;2.25;0.00;;;;;;;;4813496;29;45722;-79
2021/10/22 11:44:01;;;;;;;;;2.50;1.25;;;;;;;;4810054;29;45680;-79
2021/10/22 11:46:40;;;;;;;;;2.50;1.00;;;;;;;;4812286;29;45676;-79
2021/10/22 11:49:06;;;;;;;;;2.00;1.50;;;;;;;;4816076;29;45658;-79
2021/10/22 11:51:33;;;;;;;;;1.25;1.25;;;;;;;;4852205;29;46148;-79
2021/10/22 11:53:58;;;;;;;;;1.75;1.00;;;;;;;;4848718;29;45586;-79
2021/10/22 11:56:47;;;;;;;;;;;;;;;;;;;;;
2021/10/22 11:59:12;;;;;;;;;0.00;0.00;;;;;;;;4849002;29;69852;-80
2021/10/22 12:04:38;;;;;;;;;1.00;1.00;;;;;;;;4843458;29;46342;-79
2021/10/22 12:07:10;;;;;;;;;1.00;0.00;;;;;;;;4844894;29;45371;-81
2021/10/22 12:09:40;;;;;;;;;2.75;1.00;;;;;;;;4921302;28;45514;-81
2021/10/22 12:12:08;;;;;;;;;0.75;0.75;;;;;;;;4921005;28;48529;-80
2021/10/22 12:14:38;;;;;;;;;2.00;1.00;;;;;;;;4965712;28;45436;-80
2021/10/22 12:23:19;;;;;;;;;2.00;2.00;;;;;;;;4986998;28;46437;-80
2021/10/22 12:26:00;;;;;;;;;0.75;0.75;;;;;;;;4955593;28;45595;-80
2021/10/22 12:31:32;;;;;;;;;2.25;0.75;;;;;;;;4957314;28;45467;-79
2021/10/22 12:34:31;;;;;;;;;1.00;1.00;;;;;;;;4953225;28;46164;-80
2021/10/22 12:43:34;;;;;;;;;2.25;0.75;;;;;;;;4955357;28;45628;-80
2021/10/22 12:49:06;;;;;;;;;3.25;0.75;;;;;;;;4936080;28;45592;-79
2021/10/22 12:58:13;;;;;;;;;1.00;1.00;;;;;;;;4919764;28;45657;-79
2021/10/22 13:01:06;;;;;;;;;1.50;1.00;;;;;;;;4900639;28;45499;-80
2021/10/22 13:03:51;;;;;;;;;2.00;2.00;;;;;;;;4902483;28;51374;-80
2021/10/22 13:20:44;;;;;;;;;1.25;1.25;;;;;;;;4822394;29;50585;-80
2021/10/22 13:23:11;;;;;;;;;3.50;1.75;;;;;;;;4828546;29;45866;-80
2021/10/22 13:40:29;;;;;;;;;1.00;1.00;;;;;;;;4806969;29;45568;-80
2021/10/22 13:43:25;;;;;;;;;1.00;1.00;;;;;;;;4875658;28;47200;-80
2021/10/22 14:02:27;;;;;;;;;1.75;1.50;;;;;;;;4991733;28;45443;-80
2021/10/22 14:08:02;;;;;;;;;3.00;1.00;;;;;;;;4991654;28;50891;-80
2021/10/22 14:31:43;;;;;;;;;3.25;2.50;;;;;;;;4879587;28;45575;-80
2021/10/22 14:37:16;;;;;;;;;4.00;1.00;;;;;;;;4879574;28;50780;-80
2021/10/22 14:40:21;;;;;;;;;2.00;2.00;;;;;;;;4881968;28;45569;-80
2021/10/22 14:52:04;;;;;;;;;4.75;2.00;;;;;;;;4858716;29;45459;-80
2021/10/22 14:55:07;;;;;;;;;;;;;;;;;;;;;
2021/10/22 15:07:09;;;;;;;;;1.00;1.00;;;;;;;;4851630;29;45527;-80
2021/10/22 15:09:34;;;;;;;;;2.00;1.00;;;;;;;;4860520;28;46746;-80
2021/10/22 15:12:03;;;;;;;;;4.00;1.50;;;;;;;;4854961;29;45634;-80
2021/10/22 15:14:31;;;;;;;;;2.25;2.00;;;;;;;;4856682;29;45736;-79
2021/10/22 15:17:31;;;;;;;;;;;;;;;;;;;;;
2021/10/22 15:45:26;;;;;;;;;2.00;1.00;;;;;;;;4895566;28;45628;-80
2021/10/22 15:50:53;;;;;;;;;;;;;;;;;;;;;
2021/10/22 15:53:19;;;;;;;;;4.00;2.00;;;;;;;;4931391;28;74563;-79
2021/10/22 16:04:24;;;;;;;;;3.50;1.25;;;;;;;;4879570;28;45912;-80
2021/10/22 16:17:46;;;;;;;;;1.50;1.25;;;;;;;;5167526;22;45364;-96
2021/10/22 16:20:12;;;;;;;;;2.75;2.00;;;;;;;;5064067;28;45500;-96
2021/10/22 16:22:41;;;;;;;;;2.50;1.75;;;;;;;;5081918;28;44807;-94
2021/10/22 16:25:10;;;;;;;;;3.00;3.00;;;;;;;;5073803;28;45591;-95
2021/10/22 16:27:36;;;;;;;;;8.50;1.75;;;;;;;;5051611;28;44879;-95
2021/10/22 16:30:02;;;;;;;;;4.25;2.50;;;;;;;;5070154;28;45466;-95
2021/10/22 16:35:42;;;;;;;;;4.75;4.25;;;;;;;;5046461;22;45809;-79
2021/10/22 16:38:08;;;;;;;;;4.00;4.00;;;;;;;;5041072;28;45808;-80
2021/10/22 16:40:33;;;;;;;;;6.25;4.50;;;;;;;;5034607;28;45802;-79
2021/10/22 16:42:59;;;;;;;;;4.00;4.00;;;;;;;;5038099;28;45524;-79
2021/10/22 16:45:24;;;;;;;;;4.67;4.00;;;;;;;;5077162;22;47032;-94
2021/10/22 16:47:51;;;;;;;;;4.00;4.00;;;;;;;;5047219;28;45321;-96
2021/10/22 16:58:56;;;;;;;;;7.25;5.00;;;;;;;;5029988;28;45493;-80
2021/10/22 17:01:27;;;;;;;;;9.00;3.67;;;;;;;;5017031;28;45549;-81
2021/10/22 17:04:13;;;;;;;;;5.75;4.00;;;;;;;;5024730;28;46382;-80
2021/10/22 17:07:27;;;;;;;;;10.75;9.00;;;;;;;;5032200;28;47474;-82
2021/10/22 17:09:27;;;;;;;;;6.50;5.00;;;;;;;;5014233;28;45926;-83
2021/10/22 17:12:21;;;;;;;;;;;;;;;;;;;;;
2021/10/22 17:21:05;;;;;;;;;6.50;3.00;;;;;;;;4928562;28;46785;-83
2021/10/22 17:23:52;;;;;;;;;5.00;4.00;;;;;;;;4908771;28;45561;-82
2021/10/22 17:26:25;;;;;;;;;4.00;4.00;;;;;;;;4894796;28;45594;-82
2021/10/22 17:29:12;;;;;;;;;3.75;3.75;;;;;;;;4894370;28;46399;-83
2021/10/22 17:31:41;;;;;;;;;7.00;3.00;;;;;;;;4901924;28;45496;-82
2021/10/22 17:34:07;;;;;;;;;3.00;3.00;;;;;;;;4879550;28;45526;-85
2021/10/22 17:39:41;;;;;;;;;4.25;4.00;;;;;;;;4884428;28;46833;-82
2021/10/22 17:42:07;;;;;;;;;2.25;2.25;;;;;;;;4879653;28;46096;-83
2021/10/22 17:47:35;;;;;;;;;17.25;13.50;;;;;;;;4887238;28;45750;-83
2021/10/22 17:50:04;;;;;;;;;35.00;20.75;;;;;;;;4876196;28;51317;-82
2021/10/22 17:58:41;;;;;;;;;7.75;5.75;;;;;;;;5015566;28;46001;-82
2021/10/22 18:01:15;;;;;;;;;7.00;7.00;;;;;;;;5021997;28;47901;-83
2021/10/22 18:04:02;;;;;;;;;10.50;7.00;;;;;;;;5023216;28;46958;-83
2021/10/22 18:06:52;;;;;;;;;7.00;6.00;;;;;;;;5017316;28;45705;-83
2021/10/22 18:12:54;;;;;;;;;49.25;35.75;;;;;;;;5007090;28;48902;-83
2021/10/22 18:15:19;;;;;;;;;53.75;38.75;;;;;;;;4981640;28;46383;-83
2021/10/22 18:27:44;;;;;;;;;42.25;29.75;;;;;;;;4972441;28;45502;-81
2021/10/22 18:30:02;;;;;;;;;19.50;14.50;;;;;;;;4974150;28;45494;-82
2021/10/22 18:35:37;;;;;;;;;12.50;8.25;;;;;;;;4985369;28;45827;-83
2021/10/22 18:47:12;;;;;;;;;10.00;9.00;;;;;;;;4965989;28;45613;-83
2021/10/22 18:49:59;;;;;;;;;9.25;9.25;;;;;;;;4959330;28;45749;-83
2021/10/22 18:52:23;;;;;;;;;14.00;8.00;;;;;;;;5069124;22;50829;-83
2021/10/22 18:54:51;;;;;;;;;9.50;8.25;;;;;;;;5035905;28;45816;-81
2021/10/22 18:57:39;;;;;;;;;10.75;9.00;;;;;;;;5015504;28;47453;-80
2021/10/22 19:10:02;;;;;;;;;15.75;13.00;;;;;;;;4916913;28;45500;-81
2021/10/22 19:12:54;;;;;;;;;14.25;12.50;;;;;;;;4904454;28;45725;-81
2021/10/22 19:15:43;;;;;;;;;12.50;12.50;;;;;;;;4836531;29;45356;-82
2021/10/22 19:18:32;;;;;;;;;15.00;13.00;;;;;;;;4829724;29;45802;-81
2021/10/22 19:21:26;;;;;;;;;;;;;;;;;;;;;
2021/10/22 19:33:00;;;;;;;;;32.50;20.75;;;;;;;;4814548;29;53268;-81
2021/10/22 19:35:26;;;;;;;;;28.00;21.67;;;;;;;;4816573;29;47129;-82
2021/10/22 19:37:51;;;;;;;;;17.25;14.25;;;;;;;;4817111;29;45738;-81
2021/10/22 19:40:16;;;;;;;;;20.00;18.25;;;;;;;;4832310;29;45555;-81
2021/10/22 19:42:42;;;;;;;;;15.33;15.33;;;;;;;;4871457;29;45566;-81
2021/10/22 19:45:07;;;;;;;;;16.25;15.00;;;;;;;;4859758;29;45667;-81
2021/10/22 19:47:32;;;;;;;;;12.75;10.75;;;;;;;;4884694;28;45864;-81
2021/10/22 19:50:05;;;;;;;;;14.33;11.00;;;;;;;;4887931;28;45345;-81
2021/10/22 19:56:11;;;;;;;;;;;;;;;;;;;;;
2021/10/22 19:58:57;;;;;;;;;12.50;10.00;;;;;;;;4937297;28;69330;-81
2021/10/22 20:01:32;;;;;;;;;10.00;10.00;;;;;;;;4929374;28;45623;-81
2021/10/22 20:03:57;;;;;;;;;14.50;11.25;;;;;;;;4923691;28;48454;-82
2021/10/22 20:06:23;;;;;;;;;11.50;9.50;;;;;;;;4972590;28;45508;-82
2021/10/22 20:11:59;;;;;;;;;13.00;13.00;;;;;;;;4945644;28;47754;-81
2021/10/22 20:14:29;;;;;;;;;10.50;10.50;;;;;;;;4928131;28;47123;-82
2021/10/22 20:16:55;;;;;;;;;14.25;13.50;;;;;;;;4948973;28;45478;-81
2021/10/22 20:19:45;;;;;;;;;13.25;13.00;;;;;;;;4946658;28;45823;-82
2021/10/22 20:25:13;;;;;;;;;17.00;11.00;;;;;;;;4949014;28;45796;-82
2021/10/22 20:27:41;;;;;;;;;13.00;10.33;;;;;;;;4933707;28;45512;-82
2021/10/22 20:30:07;;;;;;;;;12.50;11.75;;;;;;;;4925037;28;50510;-82
2021/10/22 20:32:41;;;;;;;;;12.75;10.00;;;;;;;;4942732;28;45633;-82
2021/10/22 20:38:29;;;;;;;;;11.50;10.00;;;;;;;;4945916;28;45772;-81
2021/10/22 20:44:06;;;;;;;;;17.00;13.50;;;;;;;;4927002;28;45655;-82
2021/10/22 20:46:58;;;;;;;;;16.25;12.50;;;;;;;;4943784;28;47315;-82
2021/10/22 21:02:22;;;;;;;;;13.75;11.75;;;;;;;;5037244;28;45564;-80
2021/10/22 21:07:59;;;;;;;;;14.25;12.75;;;;;;;;5036538;28;45430;-82
2021/10/22 21:10:25;;;;;;;;;16.25;13.50;;;;;;;;5040168;22;47068;-95
2021/10/22 21:13:12;;;;;;;;;13.00;13.00;;;;;;;;5062583;28;44753;-96
2021/10/22 21:15:42;;;;;;;;;13.50;11.75;;;;;;;;5049433;28;45281;-96
2021/10/22 21:18:20;;;;;;;;;13.75;12.75;;;;;;;;5037118;28;44876;-96
2021/10/22 21:24:39;;;;;;;;;12.25;10.25;;;;;;;;4952506;28;46404;-80
2021/10/22 21:43:17;;;;;;;;;9.00;9.00;;;;;;;;4855311;29;45547;-81
2021/10/22 21:46:01;;;;;;;;;14.75;12.00;;;;;;;;4845372;29;47680;-81
2021/10/22 21:51:37;;;;;;;;;13.75;11.00;;;;;;;;4840927;29;45942;-81
2021/10/22 21:57:13;;;;;;;;;17.75;12.25;;;;;;;;4748906;29;45848;-81
2021/10/22 21:59:41;;;;;;;;;14.50;12.25;;;;;;;;4758035;29;45567;-81
2021/10/22 22:05:16;;;;;;;;;12.75;10.25;;;;;;;;4742447;29;45541;-81
2021/10/22 22:10:44;;;;;;;;;13.00;10.25;;;;;;;;4763924;29;45654;-81
2021/10/22 22:13:09;;;;;;;;;14.33;12.00;;;;;;;;4778303;29;45800;-82
2021/10/22 22:15:39;;;;;;;;;15.00;10.00;;;;;;;;4824101;29;45391;-81
2021/10/22 22:18:05;;;;;;;;;14.75;12.00;;;;;;;;4817805;29;45534;-81
2021/10/22 22:21:10;;;;;;;;;12.50;9.00;;;;;;;;4834620;29;45751;-82
2021/10/22 22:23:36;;;;;;;;;12.00;12.00;;;;;;;;4841422;29;45962;-81
2021/10/22 22:26:02;;;;;;;;;14.00;11.75;;;;;;;;4841846;29;45557;-81
2021/10/22 22:34:46;;;;;;;;;12.25;11.00;;;;;;;;4801910;29;48016;-82
2021/10/22 22:40:21;;;;;;;;;13.00;12.25;;;;;;;;4858035;29;45726;-81
2021/10/22 22:42:50;;;;;;;;;12.25;9.00;;;;;;;;4861784;29;46862;-79
2021/10/22 23:00:46;;;;;;;;;;;;;;;;;;;;;
2021/10/22 23:06:33;;;;;;;;;17.75;12.50;;;;;;;;4818210;29;45859;-79
2021/10/22 23:09:01;;;;;;;;;16.50;14.25;;;;;;;;4833027;29;46202;-80
2021/10/22 23:11:44;;;;;;;;;17.50;14.00;;;;;;;;4853626;29;45490;-80
2021/10/22 23:14:10;;;;;;;;;16.50;15.50;;;;;;;;4864621;29;46088;-79
2021/10/22 23:16:48;;;;;;;;;;;;;;;;;;;;;
2021/10/22 23:22:09;;;;;;;;;16.50;15.25;;;;;;;;4975887;28;45457;-79
2021/10/22 23:24:56;;;;;;;;;13.75;12.00;;;;;;;;4976939;28;46955;-79
2021/10/22 23:27:28;;;;;;;;;14.25;13.00;;;;;;;;4996645;28;45652;-79
2021/10/22 23:29:53;;;;;;;;;14.00;13.00;;;;;;;;4991217;28;45803;-80
2021/10/22 23:35:04;;;;;;;;;12.75;10.00;;;;;;;;4996276;28;45764;-80
2021/10/22 23:37:29;;;;;;;;;13.50;12.00;;;;;;;;5024345;28;45947;-81
2021/10/22 23:40:34;;;;;;;;;11.33;11.33;;;;;;;;5016182;28;45535;-80
2021/10/22 23:43:14;;;;;;;;;;;;;;;;;;;;;
2021/10/22 23:45:50;;;;;;;;;14.50;11.00;;;;;;;;5037174;28;73674;-80
2021/10/22 23:48:18;;;;;;;;;12.50;10.00;;;;;;;;5037502;28;45988;-79
2021/10/22 23:53:53;;;;;;;;;19.00;13.00;;;;;;;;5033372;28;45377;-79
2021/10/22 23:56:18;;;;;;;;;12.75;11.00;;;;;;;;5035576;28;52890;-80
2021/10/22 23:59:09;;;;;;;;;12.00;8.00;;;;;;;;5036326;28;45625;-80
